createdAt,value
2019-04-26T00:02:35.755Z,55.00
2019-04-26T00:05:03.852Z,55.40
2019-04-26T00:07:31.653Z,55.20
2019-04-26T00:10:01.176Z,55.40
2019-04-26T00:12:30.719Z,55.80
2019-04-26T00:15:06.599Z,55.90
2019-04-26T00:17:42.380Z,56.60
2019-04-26T00:20:11.538Z,56.00
2019-04-26T00:22:40.015Z,56.40
2019-04-26T00:25:07.800Z,56.00
2019-04-26T00:27:35.606Z,56.00
2019-04-26T00:30:04.113Z,55.90
2019-04-26T00:32:31.906Z,55.90
2019-04-26T00:34:59.706Z,55.90
2019-04-26T00:37:27.622Z,56.00
2019-04-26T00:39:57.151Z,56.10
2019-04-26T00:42:27.975Z,55.80
2019-04-26T00:44:59.126Z,55.80
2019-04-26T00:47:27.138Z,55.60
2019-04-26T00:49:55.034Z,56.10
2019-04-26T00:52:24.957Z,56.20
2019-04-26T00:54:52.861Z,56.00
2019-04-26T00:57:20.753Z,56.00
2019-04-26T00:59:48.660Z,56.20
2019-04-26T01:02:20.850Z,56.60
2019-04-26T01:04:48.848Z,56.00
2019-04-26T01:07:16.979Z,56.30
2019-04-26T01:09:44.854Z,56.20
2019-04-26T01:12:12.662Z,56.50
2019-04-26T01:14:40.964Z,56.50
2019-04-26T01:17:08.755Z,56.50
2019-04-26T01:19:36.560Z,56.40
2019-04-26T01:22:05.897Z,56.50
2019-04-26T01:24:34.710Z,56.30
2019-04-26T01:27:03.234Z,56.10
2019-04-26T01:29:31.129Z,56.40
2019-04-26T01:32:09.891Z,56.30
2019-04-26T01:34:38.420Z,56.50
2019-04-26T01:37:06.231Z,56.60
2019-04-26T01:39:35.581Z,56.50
2019-04-26T01:42:20.982Z,56.60
2019-04-26T01:44:56.988Z,56.80
2019-04-26T01:47:26.741Z,56.70
2019-04-26T01:49:54.746Z,57.00
2019-04-26T01:52:23.996Z,56.60
2019-04-26T01:54:52.065Z,56.40
2019-04-26T01:57:20.962Z,56.70
2019-04-26T01:59:51.869Z,56.70
2019-04-26T02:02:27.813Z,56.80
2019-04-26T02:05:06.214Z,56.90
2019-04-26T02:07:40.660Z,57.00
2019-04-26T02:10:12.551Z,56.90
2019-04-26T02:12:40.391Z,56.90
2019-04-26T02:15:08.138Z,57.10
2019-04-26T02:17:36.352Z,57.00
2019-04-26T02:20:05.478Z,57.00
2019-04-26T02:22:44.326Z,56.90
2019-04-26T02:25:12.435Z,56.90
2019-04-26T02:27:40.335Z,57.00
2019-04-26T02:30:09.159Z,57.00
2019-04-26T02:32:37.217Z,56.90
2019-04-26T02:35:05.899Z,57.10
2019-04-26T02:37:34.567Z,57.10
2019-04-26T02:40:03.542Z,57.10
2019-04-26T02:42:34.985Z,57.10
2019-04-26T02:45:22.987Z,57.00
2019-04-26T02:47:58.660Z,57.00
2019-04-26T02:50:35.366Z,57.00
2019-04-26T02:53:17.803Z,57.00
2019-04-26T02:56:03.945Z,57.10
2019-04-26T02:58:35.493Z,57.20
2019-04-26T03:01:02.822Z,57.10
2019-04-26T03:03:31.693Z,57.50
2019-04-26T03:06:00.298Z,57.30
2019-04-26T03:08:28.146Z,57.30
2019-04-26T03:11:00.764Z,57.20
2019-04-26T03:13:35.034Z,57.20
2019-04-26T03:16:20.817Z,57.20
2019-04-26T03:18:51.073Z,57.20
2019-04-26T03:21:20.723Z,57.30
2019-04-26T03:23:58.574Z,57.30
2019-04-26T03:26:26.583Z,57.30
2019-04-26T03:29:13.332Z,57.30
2019-04-26T03:31:52.432Z,57.30
2019-04-26T03:34:21.911Z,57.40
2019-04-26T03:37:21.089Z,57.30
2019-04-26T03:39:48.652Z,57.20
2019-04-26T03:42:36.515Z,57.40
2019-04-26T03:45:15.063Z,57.40
2019-04-26T03:48:01.393Z,57.50
2019-04-26T03:50:40.968Z,57.40
2019-04-26T03:53:12.760Z,57.60
2019-04-26T03:55:45.193Z,57.50
2019-04-26T03:58:25.556Z,57.40
2019-04-26T04:01:13.321Z,57.20
2019-04-26T04:03:51.472Z,57.30
2019-04-26T04:06:21.531Z,56.90
2019-04-26T04:08:51.357Z,56.90
2019-04-26T04:11:24.979Z,57.00
2019-04-26T04:13:57.577Z,57.00
2019-04-26T04:16:30.661Z,56.60
2019-04-26T04:19:00.203Z,56.60
2019-04-26T04:21:48.360Z,57.10
2019-04-26T04:24:18.004Z,56.30
2019-04-26T04:26:48.408Z,56.40
2019-04-26T04:29:42.981Z,56.40
2019-04-26T04:32:06.273Z,56.40
2019-04-26T04:34:46.017Z,56.60
2019-04-26T04:37:15.170Z,56.50
2019-04-26T04:39:48.539Z,56.40
2019-04-26T04:42:23.253Z,56.40
2019-04-26T04:45:09.281Z,56.30
2019-04-26T04:47:51.878Z,56.30
2019-04-26T04:50:25.554Z,56.60
2019-04-26T04:53:07.255Z,56.70
2019-04-26T04:55:46.306Z,57.00
2019-04-26T04:58:15.886Z,57.00
2019-04-26T05:00:53.457Z,56.80
2019-04-26T05:03:44.079Z,57.20
2019-04-26T05:06:35.602Z,56.50
2019-04-26T05:09:06.582Z,56.40
2019-04-26T05:11:57.118Z,56.20
2019-04-26T05:14:44.817Z,56.70
2019-04-26T05:17:30.432Z,56.40
2019-04-26T05:20:17.002Z,56.50
2019-04-26T05:22:55.502Z,56.50
2019-04-26T05:25:40.316Z,56.50
2019-04-26T05:28:23.306Z,57.10
2019-04-26T05:31:07.011Z,56.30
2019-04-26T05:33:36.690Z,56.20
2019-04-26T05:36:08.115Z,56.00
2019-04-26T05:38:40.777Z,56.20
2019-04-26T05:41:21.963Z,56.20
2019-04-26T05:44:10.678Z,56.20
2019-04-26T05:46:51.629Z,56.40
2019-04-26T05:49:25.804Z,56.50
2019-04-26T05:52:02.525Z,56.40
2019-04-26T05:54:45.627Z,56.60
2019-04-26T05:57:22.669Z,56.70
2019-04-26T05:59:53.464Z,56.80
2019-04-26T06:02:41.477Z,56.80
2019-04-26T06:05:33.395Z,56.90
2019-04-26T06:08:43.926Z,57.10
2019-04-26T06:11:40.763Z,57.70
2019-04-26T06:14:41.322Z,57.00
2019-04-26T06:17:27.376Z,57.10
2019-04-26T06:19:59.455Z,57.10
2019-04-26T06:22:29.078Z,57.20
2019-04-26T06:25:00.446Z,57.10
2019-04-26T06:27:46.377Z,57.20
2019-04-26T06:30:16.992Z,57.20
2019-04-26T06:33:00.354Z,57.20
2019-04-26T06:35:22.591Z,57.10
2019-04-26T06:37:59.789Z,57.40
2019-04-26T06:40:46.432Z,57.40
2019-04-26T06:43:17.602Z,57.40
2019-04-26T06:46:04.634Z,57.60
2019-04-26T06:48:52.163Z,58.00
2019-04-26T06:51:24.556Z,57.50
2019-04-26T06:53:58.832Z,57.70
2019-04-26T06:56:51.047Z,57.70
2019-04-26T06:59:36.238Z,57.80
2019-04-26T07:01:59.234Z,57.80
2019-04-26T07:04:45.583Z,57.80
2019-04-26T07:07:20.782Z,57.90
2019-04-26T07:09:50.570Z,57.90
2019-04-26T07:12:25.473Z,58.10
2019-04-26T07:15:03.890Z,58.30
2019-04-26T07:17:45.736Z,58.20
2019-04-26T07:20:21.341Z,58.10
2019-04-26T07:22:59.366Z,58.00
2019-04-26T07:25:40.306Z,58.10
2019-04-26T07:28:12.729Z,57.90
2019-04-26T07:30:42.664Z,58.00
2019-04-26T07:33:30.465Z,58.30
2019-04-26T07:36:09.802Z,58.20
2019-04-26T07:38:52.649Z,58.00
2019-04-26T07:41:40.314Z,58.40
2019-04-26T07:44:29.278Z,58.20
2019-04-26T07:47:08.547Z,58.40
2019-04-26T07:49:56.698Z,58.40
2019-04-26T07:52:32.168Z,58.40
2019-04-26T07:55:18.717Z,58.30
2019-04-26T07:57:49.266Z,58.40
2019-04-26T08:00:44.643Z,58.50
2019-04-26T08:03:28.071Z,58.50
2019-04-26T08:06:00.488Z,58.70
2019-04-26T08:08:34.815Z,58.80
2019-04-26T08:11:06.223Z,58.80
2019-04-26T08:13:34.569Z,58.90
2019-04-26T08:16:22.793Z,58.80
2019-04-26T08:18:54.232Z,58.90
2019-04-26T08:21:31.720Z,58.70
2019-04-26T08:23:59.868Z,58.70
2019-04-26T08:26:28.001Z,58.80
2019-04-26T08:29:00.704Z,58.80
2019-04-26T08:31:28.310Z,58.80
2019-04-26T08:33:57.925Z,58.80
2019-04-26T08:36:29.616Z,58.80
2019-04-26T08:38:58.377Z,58.90
2019-04-26T08:41:26.536Z,58.80
2019-04-26T08:44:11.727Z,59.10
2019-04-26T08:46:56.901Z,58.90
2019-04-26T08:49:31.192Z,59.50
2019-04-26T08:51:58.989Z,59.10
2019-04-26T08:54:28.672Z,59.00
2019-04-26T08:57:00.609Z,59.00
2019-04-26T08:59:30.037Z,59.10
2019-04-26T09:01:59.480Z,59.60
2019-04-26T09:04:37.799Z,59.10
2019-04-26T09:07:07.337Z,59.10
2019-04-26T09:09:35.745Z,59.00
2019-04-26T09:12:08.338Z,59.10
2019-04-26T09:14:35.437Z,59.10
2019-04-26T09:17:03.228Z,58.90
2019-04-26T09:19:32.204Z,58.80
2019-04-26T09:22:12.502Z,58.80
2019-04-26T09:24:32.842Z,58.60
2019-04-26T09:27:05.038Z,58.60
2019-04-26T09:29:34.579Z,58.70
2019-04-26T09:32:12.807Z,58.60
2019-04-26T09:34:42.658Z,58.60
2019-04-26T09:37:10.881Z,58.90
2019-04-26T09:39:41.736Z,58.60
2019-04-26T09:42:26.029Z,58.70
2019-04-26T09:45:11.995Z,58.60
2019-04-26T09:47:44.630Z,58.60
2019-04-26T09:50:17.299Z,58.50
2019-04-26T09:52:46.849Z,58.60
2019-04-26T09:55:14.768Z,58.60
2019-04-26T09:57:42.574Z,58.70
2019-04-26T10:00:14.244Z,58.70
2019-04-26T10:02:40.306Z,58.70
2019-04-26T10:05:11.583Z,58.60
2019-04-26T10:07:38.888Z,58.60
2019-04-26T10:10:07.684Z,58.70
2019-04-26T10:12:37.212Z,58.40
2019-04-26T10:15:16.792Z,58.50
2019-04-26T10:17:46.429Z,58.60
2019-04-26T10:20:14.010Z,58.40
2019-04-26T10:22:42.135Z,58.50
2019-04-26T10:25:16.328Z,58.60
2019-04-26T10:27:40.757Z,58.60
2019-04-26T10:30:11.061Z,58.60
2019-04-26T10:32:38.823Z,58.60
2019-04-26T10:35:06.735Z,58.50
2019-04-26T10:37:39.700Z,58.60
2019-04-26T10:40:05.707Z,58.60
2019-04-26T10:42:33.481Z,58.50
2019-04-26T10:45:01.390Z,58.50
2019-04-26T10:47:29.201Z,58.70
2019-04-26T10:49:58.214Z,58.90
2019-04-26T10:52:53.311Z,58.60
2019-04-26T10:55:25.564Z,58.80
2019-04-26T10:57:54.905Z,58.80
2019-04-26T11:00:27.011Z,58.80
2019-04-26T11:03:00.045Z,58.80
2019-04-26T11:05:26.299Z,58.90
2019-04-26T11:07:56.465Z,59.00
2019-04-26T11:10:27.142Z,58.90
2019-04-26T11:12:56.868Z,59.00
2019-04-26T11:15:24.985Z,59.10
2019-04-26T11:17:53.486Z,59.00
2019-04-26T11:20:21.384Z,59.00
2019-04-26T11:22:49.491Z,59.00
2019-04-26T12:09:18.801Z,59.30
2019-04-26T12:11:50.966Z,59.30
2019-04-26T12:14:20.453Z,59.50
2019-04-26T12:16:49.256Z,60.00
2019-04-26T12:19:18.352Z,59.60
2019-04-26T12:21:44.517Z,59.50
2019-04-26T12:24:12.402Z,59.50
2019-04-26T12:26:43.111Z,59.50
2019-04-26T12:29:10.498Z,59.40
2019-04-26T12:31:39.343Z,59.30
2019-04-26T12:34:07.114Z,59.30
2019-04-26T12:36:34.909Z,59.60
2019-04-26T12:39:03.308Z,59.60
2019-04-26T12:41:40.492Z,59.70
2019-04-26T12:44:03.322Z,59.80
2019-04-26T12:46:32.095Z,59.30
2019-04-26T12:49:00.054Z,59.70
2019-04-26T12:51:27.944Z,59.80
2019-04-26T12:53:58.812Z,59.70
2019-04-26T12:56:31.104Z,59.60
2019-04-26T12:58:56.336Z,59.60
2019-04-26T13:01:26.537Z,59.60
2019-04-26T13:04:03.965Z,59.70
2019-04-26T13:06:33.484Z,59.70
2019-04-26T13:09:01.334Z,59.50
2019-04-26T13:11:33.929Z,59.70
2019-04-26T13:14:06.643Z,59.40
2019-04-26T13:16:38.945Z,59.10
2019-04-26T13:19:06.918Z,58.80
2019-04-26T13:21:37.266Z,58.50
2019-04-26T13:24:05.862Z,58.20
2019-04-26T13:26:34.802Z,58.10
2019-04-26T13:29:03.419Z,57.90
2019-04-26T13:31:31.964Z,57.80
2019-04-26T13:34:03.014Z,57.60
2019-04-26T13:36:30.632Z,57.70
2019-04-26T13:38:58.510Z,57.70
2019-04-26T13:41:27.986Z,57.60
2019-04-26T13:43:57.139Z,57.90
2019-04-26T13:46:43.623Z,57.80
2019-04-26T13:49:14.335Z,57.90
2019-04-26T13:51:44.229Z,57.80
2019-04-26T13:54:12.229Z,57.90
2019-04-26T13:56:40.121Z,58.00
2019-04-26T13:59:08.117Z,58.00
2019-04-26T14:01:36.419Z,58.00
2019-04-26T14:04:06.954Z,58.00
2019-04-26T14:06:33.844Z,58.00
2019-04-26T14:09:03.004Z,58.00
2019-04-26T14:11:31.232Z,58.00
2019-04-26T14:14:00.087Z,58.10
2019-04-26T14:16:28.600Z,58.10
2019-04-26T14:18:56.492Z,58.10
2019-04-26T14:21:29.177Z,58.80
2019-04-26T14:24:10.742Z,58.20
2019-04-26T14:26:41.486Z,58.20
2019-04-26T14:29:09.386Z,58.20
2019-04-26T14:31:37.206Z,58.40
2019-04-26T14:34:05.417Z,58.30
2019-04-26T14:36:34.541Z,58.30
2019-04-26T14:39:05.972Z,58.50
2019-04-26T14:41:31.853Z,58.20
2019-04-26T14:43:59.642Z,58.30
2019-04-26T14:46:27.564Z,58.30
2019-04-26T14:49:02.054Z,58.20
2019-04-26T14:51:26.559Z,58.10
2019-04-26T14:53:57.352Z,58.30
2019-04-26T14:56:29.239Z,58.40
2019-04-26T14:59:01.218Z,58.30
2019-04-26T15:01:37.635Z,58.40
2019-04-26T15:04:23.347Z,58.20
2019-04-26T15:06:57.970Z,58.30
2019-04-26T15:09:29.716Z,58.50
2019-04-26T15:11:57.808Z,58.60
2019-04-26T15:14:22.699Z,58.50
2019-04-26T15:16:50.529Z,58.50
2019-04-26T15:19:18.728Z,58.50
2019-04-26T15:21:46.724Z,58.70
2019-04-26T15:24:14.718Z,58.60
2019-04-26T15:26:42.623Z,58.60
2019-04-26T15:29:10.392Z,58.60
2019-04-26T15:31:38.230Z,58.60
2019-04-26T15:34:06.225Z,58.70
2019-04-26T15:36:34.078Z,58.60
2019-04-26T15:41:58.079Z,58.70
2019-04-26T15:44:45.868Z,58.80
2019-04-26T15:47:18.046Z,58.70
2019-04-26T15:49:47.485Z,59.40
2019-04-26T15:52:15.339Z,58.90
2019-04-26T15:54:44.169Z,58.90
2019-04-26T15:57:12.404Z,58.70
2019-04-26T15:59:40.417Z,58.80
2019-04-26T16:02:08.413Z,58.70
2019-04-26T16:04:36.313Z,58.70
2019-04-26T16:07:04.221Z,58.90
2019-04-26T16:09:32.633Z,58.90
2019-04-26T16:12:00.708Z,58.80
2019-04-26T16:14:31.319Z,58.80
2019-04-26T16:16:58.263Z,58.70
2019-04-26T16:19:27.854Z,58.70
2019-04-26T16:21:59.052Z,58.70
2019-04-26T16:24:27.986Z,58.70
2019-04-26T16:27:02.721Z,58.70
2019-04-26T16:29:38.512Z,58.70
2019-04-26T16:32:08.041Z,58.70
2019-04-26T16:34:41.682Z,58.70
2019-04-26T16:37:09.995Z,58.90
2019-04-26T16:39:38.824Z,58.90
2019-04-26T16:42:07.644Z,59.00
2019-04-26T16:44:35.844Z,59.10
2019-04-26T16:47:05.903Z,59.00
2019-04-26T16:49:35.113Z,59.00
2019-04-26T16:52:06.799Z,59.10
2019-04-26T17:23:30.018Z,59.60
2019-04-26T17:26:05.650Z,59.50
2019-04-26T17:28:33.650Z,59.60
2019-04-26T17:31:02.142Z,59.80
2019-04-26T17:33:29.940Z,59.80
2019-04-26T17:35:58.116Z,59.70
2019-04-26T17:38:25.880Z,59.80
2019-04-26T17:40:55.568Z,61.00
2019-04-26T17:43:23.079Z,59.70
2019-04-26T17:45:51.649Z,59.20
2019-04-26T17:48:21.145Z,59.00
2019-04-26T17:50:49.230Z,59.20
2019-04-26T17:53:28.145Z,58.50
2019-04-26T17:55:50.981Z,59.10
2019-04-26T17:58:17.813Z,58.30
2019-04-26T18:00:46.524Z,58.30
2019-04-26T18:03:15.054Z,58.30
2019-04-26T18:05:56.780Z,58.30
2019-04-26T18:08:33.768Z,58.40
2019-04-26T18:10:42.916Z,58.30
2019-04-26T18:13:16.132Z,58.40
2019-04-26T18:15:46.898Z,58.40
2019-04-26T18:18:14.343Z,58.40
2019-04-26T18:20:58.892Z,58.50
2019-04-26T18:23:26.788Z,58.60
2019-04-26T18:25:54.593Z,58.50
2019-04-26T18:28:22.771Z,58.50
2019-04-26T18:30:50.770Z,58.40
2019-04-26T18:33:24.176Z,58.40
2019-04-26T18:35:53.156Z,58.60
2019-04-26T18:38:17.634Z,58.60
2019-04-26T18:41:00.183Z,58.60
2019-04-26T18:43:17.654Z,58.60
2019-04-26T18:45:46.542Z,58.80
2019-04-26T18:48:14.327Z,58.90
2019-04-26T18:50:45.687Z,58.80
2019-04-26T18:53:14.002Z,58.90
2019-04-26T18:55:43.083Z,59.00
2019-04-26T18:58:11.123Z,59.00
2019-04-26T19:30:08.855Z,59.30
2019-04-26T19:32:35.408Z,59.20
2019-04-26T19:35:07.536Z,59.10
2019-04-26T19:37:36.728Z,59.10
2019-04-26T19:40:02.866Z,59.10
2019-04-26T19:42:32.457Z,59.00
2019-04-26T19:45:13.380Z,59.10
2019-04-26T19:47:35.380Z,59.10
2019-04-26T19:50:27.453Z,59.10
2019-04-26T19:53:01.576Z,59.10
2019-04-26T19:55:36.687Z,59.30
2019-04-26T19:58:09.656Z,59.40
2019-04-26T20:00:42.546Z,59.30
2019-04-26T20:03:12.446Z,59.30
2019-04-26T20:05:40.595Z,59.10
2019-04-26T20:08:07.352Z,59.30
2019-04-26T20:10:40.476Z,59.10
2019-04-26T20:13:07.539Z,59.10
2019-04-26T20:15:34.639Z,59.00
2019-04-26T20:18:04.031Z,59.10
2019-04-26T20:20:35.268Z,59.00
2019-04-26T20:23:05.789Z,59.00
2019-04-26T20:25:31.109Z,59.00
2019-04-26T20:28:00.009Z,59.00
2019-04-26T20:30:36.141Z,59.00
2019-04-26T20:33:04.445Z,59.00
2019-04-26T20:35:32.338Z,59.10
2019-04-26T20:38:03.283Z,59.10
2019-04-26T20:40:29.678Z,59.10
2019-04-26T20:43:03.259Z,59.00
2019-04-26T20:45:38.857Z,59.10
2019-04-26T20:47:56.973Z,59.10
2019-04-26T20:50:28.660Z,59.30
2019-04-26T20:53:00.900Z,59.20
2019-04-26T20:55:30.389Z,59.30
2019-04-26T20:57:55.513Z,59.40
2019-04-26T21:00:25.183Z,59.30
2019-04-26T21:02:54.184Z,59.20
2019-04-26T21:05:22.893Z,59.40
2019-04-26T21:07:51.089Z,59.30
2019-04-26T21:10:22.109Z,59.30
2019-04-26T21:12:52.244Z,59.30
2019-04-26T21:15:20.377Z,59.20
2019-04-26T21:17:48.398Z,59.40
2019-04-26T21:20:16.300Z,59.30
2019-04-26T21:22:44.622Z,59.30
2019-04-26T21:25:23.154Z,59.40
2019-04-26T21:27:55.778Z,59.40
2019-04-26T21:30:33.572Z,59.40
2019-04-26T21:33:05.617Z,59.40
2019-04-26T21:35:41.138Z,59.60
2019-04-26T21:38:25.541Z,59.40
2019-04-26T21:41:14.057Z,59.50
2019-04-26T21:43:43.694Z,59.50
2019-04-26T21:46:18.686Z,59.60
2019-04-26T21:48:41.917Z,59.60
2019-04-26T21:51:14.515Z,59.60
2019-04-26T21:53:42.190Z,59.40
2019-04-26T21:56:11.537Z,59.50
2019-04-26T21:58:39.115Z,59.50
2019-04-26T22:01:11.127Z,59.60
2019-04-26T22:03:38.193Z,59.70
2019-04-26T22:06:05.989Z,59.70
2019-04-26T22:08:38.071Z,59.80
2019-04-26T22:11:06.273Z,60.10
2019-04-26T22:13:41.575Z,60.50
2019-04-26T22:16:29.304Z,60.60
2019-04-26T22:18:50.578Z,60.90
2019-04-26T22:21:36.892Z,60.90
2019-04-26T22:24:06.415Z,61.00
2019-04-26T22:26:37.935Z,61.30
2019-04-26T22:29:03.846Z,61.30
2019-04-26T22:31:31.740Z,61.40
2019-04-26T22:34:01.483Z,61.40
2019-04-26T22:36:30.791Z,61.30
2019-04-26T22:39:01.858Z,61.30
2019-04-26T22:41:28.530Z,61.40
2019-04-26T22:44:09.702Z,61.30
2019-04-26T22:46:49.556Z,61.60
2019-04-26T22:49:17.317Z,61.40
2019-04-26T22:51:45.312Z,61.50
2019-04-26T22:54:13.106Z,61.60
2019-04-26T22:56:41.098Z,61.60
2019-04-26T22:59:08.894Z,61.50
2019-04-26T23:01:39.293Z,61.60
2019-04-26T23:04:06.938Z,61.60
2019-04-26T23:06:34.731Z,61.50
2019-04-26T23:09:02.515Z,61.60
2019-04-26T23:11:30.507Z,61.60
2019-04-26T23:14:00.037Z,61.60
2019-04-26T23:16:33.613Z,61.70
2019-04-26T23:19:03.741Z,61.80
2019-04-26T23:21:33.937Z,61.90
2019-04-26T23:24:03.799Z,61.90
2019-04-26T23:26:33.466Z,62.10
2019-04-26T23:29:01.444Z,61.90
2019-04-26T23:31:29.159Z,61.90
2019-04-26T23:33:57.126Z,61.70
2019-04-26T23:36:24.919Z,61.90
2019-04-26T23:38:53.203Z,61.80
2019-04-26T23:41:23.434Z,61.80
2019-04-26T23:43:50.635Z,61.90
2019-04-26T23:46:18.747Z,61.80
2019-04-26T23:48:49.539Z,61.80
2019-04-26T23:51:17.727Z,61.90
2019-04-26T23:53:45.651Z,61.90
2019-04-26T23:56:16.225Z,61.80
2019-04-26T23:58:44.202Z,61.80
